Terminal Aerodrome Forecast
Issued by NWS

Home | Current Version | Previous Version | Text Only | Print | Product List | Glossary On
Versions: 1 2 3 4 5 6 7 8 9 10 11 12 13 14 15 16 17 18 19 20 21 22 23 24 25 26 27 28 29 30 31 32 33 34 35 36 37 38 39
000
FTUS44 KFWD 190213 AAB
TAFGKY
TAF AMD
KGKY 190213Z 1902/1924 30015KT 4SM -TSRA BKN025CB BKN070
     FM190330 32010KT P6SM BKN040 BKN090
     FM190500 16005KT 6SM BR SCT040 BKN080
     FM191500 21015KT P6SM BKN035
     FM192000 28019KT P6SM SCT050=

USA.gov is the U.S. government's official web portal to all federal, state and local government web resources and services.